Island Breeze — WDA3596 — position and weather

sailwx.info

Track history (hours):
 
Tides and Currents Weather Stations Pressure Air Temp Water Temp Dewpoint Dewpoint Depression Visibility Wind Speed Wind Dir Waves Ship Positions

Island Breeze

More information available from US FCC via Universal Licensing System and Coast Guard Vessel Documentation Center.

Last reported at 2014-Sep-23 09:33 UTC. Time now 2014-Sep-23 10:17 UTC.
Position N 47°35' W 122°28'.

Length 18 m.

Type: Tug. MMSI: 366800090.

Date/timePositionNaut miles runAvg speedWind from/ knotsBaromVisibWave heightAir tempDewpointWater temp
2014-Sep-23 09:33N 47°35' W 122°28'6 6.1
2014-Sep-23 08:33N 47°40' W 122°24'3 3.1
2014-Sep-23 07:34N 47°39' W 122°20'5 4.6
2014-Sep-23 06:33N 47°41' W 122°14'4 4.4
2014-Sep-23 05:33N 47°45' W 122°15'0 0.0
2014-Sep-23 04:34N 47°45' W 122°15'1 0.5
2014-Sep-23 03:32N 47°45' W 122°16'3 3.3
2014-Sep-23 02:33N 47°42' W 122°15'4 4.2
2014-Sep-23 01:32N 47°39' W 122°20'3 3.3
2014-Sep-23 00:33N 47°40' W 122°24'2 2.3
2014-Sep-22 23:33N 47°39' W 122°27'7 6.8
2014-Sep-22 22:34N 47°32' W 122°28'2 0.2
2014-Sep-22 12:07N 47°30' W 122°29'4 7.7
2014-Sep-22 11:33N 47°35' W 122°28'6 6.3
2014-Sep-22 10:34N 47°41' W 122°25'3 2.5
2014-Sep-22 09:33N 47°39' W 122°22'5 4.6
2014-Sep-22 08:33N 47°39' W 122°15'6 5.7
2014-Sep-22 07:33N 47°45' W 122°16'  
2014-Sep-20 01:33N 47°45' W 122°15'0 0.0
2014-Sep-20 00:33N 47°45' W 122°15'4 4.3
2014-Sep-19 23:33N 47°41' W 122°15'5 4.5
2014-Sep-19 22:33N 47°39' W 122°20'3 3.2
2014-Sep-19 21:33N 47°40' W 122°24'2 2.1
2014-Sep-19 20:33N 47°39' W 122°27'7 6.4
2014-Sep-19 19:31N 47°33' W 122°28'6 6.5
2014-Sep-19 18:33N 47°27' W 122°31'13 6.4
2014-Sep-19 16:33N 47°14' W 122°35'22 2.8
2014-Sep-19 08:33N 47°36' W 122°28'5 4.7
2014-Sep-19 07:33N 47°40' W 122°24'2 1.7
2014-Sep-19 06:33N 47°39' W 122°22'5 4.5
2014-Sep-19 05:33N 47°40' W 122°15'6 5.6
2014-Sep-19 04:33N 47°45' W 122°16'0 0.3
2014-Sep-19 03:31N 47°45' W 122°16'2 2.4
2014-Sep-19 02:33N 47°43' W 122°16'4 3.6
2014-Sep-19 01:20N 47°39' W 122°20'3 3.5
2014-Sep-19 00:33N 47°40' W 122°23'0 0.1
2014-Sep-18 23:33N 47°40' W 122°23'0 0.2
2014-Sep-18 22:33N 47°40' W 122°24'2 2.4
2014-Sep-18 21:33N 47°39' W 122°27'6 6.3
2014-Sep-18 20:33N 47°33' W 122°28'7 6.5
2014-Sep-18 19:32N 47°27' W 122°32'6 6.7
2014-Sep-18 18:33N 47°20' W 122°33'4 4.3
2014-Sep-18 17:31N 47°16' W 122°34'6 5.7
2014-Sep-18 16:30N 47°11' W 122°38'6 1.2
2014-Sep-18 11:32N 47°16' W 122°34'6 6.4
2014-Sep-18 10:33N 47°22' W 122°32'10 7.9
2014-Sep-18 09:20N 47°32' W 122°29'6 7.9
2014-Sep-18 08:33N 47°38' W 122°28'4 3.9
2014-Sep-18 07:33N 47°40' W 122°23'4 3.5
2014-Sep-18 06:33N 47°39' W 122°18'5 5.5
2014-Sep-18 05:33N 47°44' W 122°16'2 1.5
2014-Sep-18 04:33N 47°45' W 122°15'0 0.3
2014-Sep-18 03:33N 47°45' W 122°16'3 3.5
2014-Sep-18 02:33N 47°42' W 122°15'4 3.8
2014-Sep-18 01:31N 47°39' W 122°19'3 2.6
2014-Sep-18 00:33N 47°40' W 122°23'1 0.5
2014-Sep-17 23:33N 47°40' W 122°24'2 2.0
2014-Sep-17 22:33N 47°40' W 122°27'6 6.5
2014-Sep-17 21:33N 47°33' W 122°26'6 6.3
2014-Sep-17 20:33N 47°28' W 122°31'0 0.0
2014-Sep-17 10:33N 47°28' W 122°31'7 6.8
2014-Sep-17 09:31N 47°35' W 122°28'6 6.5
2014-Sep-17 08:33N 47°41' W 122°25'3 3.1
2014-Sep-17 07:33N 47°39' W 122°21'5 4.9
2014-Sep-17 06:31N 47°41' W 122°14'5 4.7
2014-Sep-17 05:29N 47°45' W 122°15'0 0.5
2014-Sep-17 04:33N 47°45' W 122°16'3 2.7
2014-Sep-17 03:33N 47°42' W 122°16'4 4.0
2014-Sep-17 02:33N 47°39' W 122°18'4 3.8
2014-Sep-17 01:33N 47°40' W 122°24'2 2.2
2014-Sep-17 00:32N 47°39' W 122°27'7 7.1
2014-Sep-16 23:31N 47°32' W 122°28'1 0.1
2014-Sep-16 09:33N 47°33' W 122°28'1 7.8
2014-Sep-16 09:22N 47°34' W 122°28'6 7.3
2014-Sep-16 08:33N 47°40' W 122°26'0 8.2
2014-Sep-16 08:32N 47°40' W 122°26'3 3.2
2014-Sep-16 07:33N 47°39' W 122°22'0 4.9
2014-Sep-16 07:31N 47°39' W 122°22'4 4.4
2014-Sep-16 06:32N 47°40' W 122°15'0 7.9
2014-Sep-16 06:31N 47°40' W 122°15'6 5.7
2014-Sep-16 05:33N 47°45' W 122°16'0 0.1
2014-Sep-16 04:33N 47°45' W 122°16'0 0.1
2014-Sep-16 03:33N 47°45' W 122°16'5 5.5
2014-Sep-16 02:33N 47°40' W 122°15'1 5.7
2014-Sep-16 02:18N 47°39' W 122°17'3 4.1
2014-Sep-16 01:34N 47°39' W 122°22'0 2.2
2014-Sep-16 01:33N 47°39' W 122°22'3 2.8
2014-Sep-16 00:33N 47°41' W 122°25'0 0.0
2014-Sep-16 00:33N 47°41' W 122°25'5 5.0
2014-Sep-15 23:33N 47°36' W 122°23'0 0.0
2014-Sep-15 23:33N 47°36' W 122°23'2 0.1
2014-Sep-15 07:16N 47°34' W 122°21'0 0.0
2014-Sep-15 07:15N 47°34' W 122°21'  
Track history (hours):
 
Tides and Currents Weather Stations Pressure Air Temp Water Temp Dewpoint Dewpoint Depression Visibility Wind Speed Wind Dir Waves Ship Positions

Island Breeze

More information available from US FCC via Universal Licensing System and Coast Guard Vessel Documentation Center.

Last reported at 2014-Sep-23 09:33 UTC. Time now 2014-Sep-23 10:17 UTC.
Position N 47°35' W 122°28'.

Length 18 m.

Type: Tug. MMSI: 366800090.

Date/timePositionNaut miles runAvg speedWind from/ knotsBaromVisibWave heightAir tempDewpointWater temp
2014-Sep-23 09:33N 47°35' W 122°28'6 6.1
2014-Sep-23 08:33N 47°40' W 122°24'3 3.1
2014-Sep-23 07:34N 47°39' W 122°20'5 4.6
2014-Sep-23 06:33N 47°41' W 122°14'4 4.4
2014-Sep-23 05:33N 47°45' W 122°15'0 0.0
2014-Sep-23 04:34N 47°45' W 122°15'1 0.5
2014-Sep-23 03:32N 47°45' W 122°16'3 3.3
2014-Sep-23 02:33N 47°42' W 122°15'4 4.2
2014-Sep-23 01:32N 47°39' W 122°20'3 3.3
2014-Sep-23 00:33N 47°40' W 122°24'2 2.3
2014-Sep-22 23:33N 47°39' W 122°27'7 6.8
2014-Sep-22 22:34N 47°32' W 122°28'2 0.2
2014-Sep-22 12:07N 47°30' W 122°29'4 7.7
2014-Sep-22 11:33N 47°35' W 122°28'6 6.3
2014-Sep-22 10:34N 47°41' W 122°25'3 2.5
2014-Sep-22 09:33N 47°39' W 122°22'5 4.6
2014-Sep-22 08:33N 47°39' W 122°15'6 5.7
2014-Sep-22 07:33N 47°45' W 122°16'  
2014-Sep-20 01:33N 47°45' W 122°15'0 0.0
2014-Sep-20 00:33N 47°45' W 122°15'4 4.3
2014-Sep-19 23:33N 47°41' W 122°15'5 4.5
2014-Sep-19 22:33N 47°39' W 122°20'3 3.2
2014-Sep-19 21:33N 47°40' W 122°24'2 2.1
2014-Sep-19 20:33N 47°39' W 122°27'7 6.4
2014-Sep-19 19:31N 47°33' W 122°28'6 6.5
2014-Sep-19 18:33N 47°27' W 122°31'13 6.4
2014-Sep-19 16:33N 47°14' W 122°35'22 2.8
2014-Sep-19 08:33N 47°36' W 122°28'5 4.7
2014-Sep-19 07:33N 47°40' W 122°24'2 1.7
2014-Sep-19 06:33N 47°39' W 122°22'5 4.5
2014-Sep-19 05:33N 47°40' W 122°15'6 5.6
2014-Sep-19 04:33N 47°45' W 122°16'0 0.3
2014-Sep-19 03:31N 47°45' W 122°16'2 2.4
2014-Sep-19 02:33N 47°43' W 122°16'4 3.6
2014-Sep-19 01:20N 47°39' W 122°20'3 3.5
2014-Sep-19 00:33N 47°40' W 122°23'0 0.1
2014-Sep-18 23:33N 47°40' W 122°23'0 0.2
2014-Sep-18 22:33N 47°40' W 122°24'2 2.4
2014-Sep-18 21:33N 47°39' W 122°27'6 6.3
2014-Sep-18 20:33N 47°33' W 122°28'7 6.5
2014-Sep-18 19:32N 47°27' W 122°32'6 6.7
2014-Sep-18 18:33N 47°20' W 122°33'4 4.3
2014-Sep-18 17:31N 47°16' W 122°34'6 5.7
2014-Sep-18 16:30N 47°11' W 122°38'6 1.2
2014-Sep-18 11:32N 47°16' W 122°34'6 6.4
2014-Sep-18 10:33N 47°22' W 122°32'10 7.9
2014-Sep-18 09:20N 47°32' W 122°29'6 7.9
2014-Sep-18 08:33N 47°38' W 122°28'4 3.9
2014-Sep-18 07:33N 47°40' W 122°23'4 3.5
2014-Sep-18 06:33N 47°39' W 122°18'5 5.5
2014-Sep-18 05:33N 47°44' W 122°16'2 1.5
2014-Sep-18 04:33N 47°45' W 122°15'0 0.3
2014-Sep-18 03:33N 47°45' W 122°16'3 3.5
2014-Sep-18 02:33N 47°42' W 122°15'4 3.8
2014-Sep-18 01:31N 47°39' W 122°19'3 2.6
2014-Sep-18 00:33N 47°40' W 122°23'1 0.5
2014-Sep-17 23:33N 47°40' W 122°24'2 2.0
2014-Sep-17 22:33N 47°40' W 122°27'6 6.5
2014-Sep-17 21:33N 47°33' W 122°26'6 6.3
2014-Sep-17 20:33N 47°28' W 122°31'0 0.0
2014-Sep-17 10:33N 47°28' W 122°31'7 6.8
2014-Sep-17 09:31N 47°35' W 122°28'6 6.5
2014-Sep-17 08:33N 47°41' W 122°25'3 3.1
2014-Sep-17 07:33N 47°39' W 122°21'5 4.9
2014-Sep-17 06:31N 47°41' W 122°14'5 4.7
2014-Sep-17 05:29N 47°45' W 122°15'0 0.5
2014-Sep-17 04:33N 47°45' W 122°16'3 2.7
2014-Sep-17 03:33N 47°42' W 122°16'4 4.0
2014-Sep-17 02:33N 47°39' W 122°18'4 3.8
2014-Sep-17 01:33N 47°40' W 122°24'2 2.2
2014-Sep-17 00:32N 47°39' W 122°27'7 7.1
2014-Sep-16 23:31N 47°32' W 122°28'1 0.1
2014-Sep-16 09:33N 47°33' W 122°28'1 7.8
2014-Sep-16 09:22N 47°34' W 122°28'6 7.3
2014-Sep-16 08:33N 47°40' W 122°26'0 8.2
2014-Sep-16 08:32N 47°40' W 122°26'3 3.2
2014-Sep-16 07:33N 47°39' W 122°22'0 4.9
2014-Sep-16 07:31N 47°39' W 122°22'4 4.4
2014-Sep-16 06:32N 47°40' W 122°15'0 7.9
2014-Sep-16 06:31N 47°40' W 122°15'6 5.7
2014-Sep-16 05:33N 47°45' W 122°16'0 0.1
2014-Sep-16 04:33N 47°45' W 122°16'0 0.1
2014-Sep-16 03:33N 47°45' W 122°16'5 5.5
2014-Sep-16 02:33N 47°40' W 122°15'1 5.7
2014-Sep-16 02:18N 47°39' W 122°17'3 4.1
2014-Sep-16 01:34N 47°39' W 122°22'0 2.2
2014-Sep-16 01:33N 47°39' W 122°22'3 2.8
2014-Sep-16 00:33N 47°41' W 122°25'0 0.0
2014-Sep-16 00:33N 47°41' W 122°25'5 5.0
2014-Sep-15 23:33N 47°36' W 122°23'0 0.0
2014-Sep-15 23:33N 47°36' W 122°23'2 0.1
2014-Sep-15 07:16N 47°34' W 122°21'0 0.0
2014-Sep-15 07:15N 47°34' W 122°21'  

Dump ship's entire track history